Time;durP1;ratioP1;P1;durP2;ratioP2;P2;SDS_P1;SDS_P2;PMS_P1;PMS_P2;Temp;Humidity;BMP_temperature;BMP_pressure;BME280_temperature;BME280_humidity;BME280_pressure;Samples;Min_cycle;Max_cycle;Signal;HPM_P1;HPM_P2
2023/11/12 00:00:12;;;;;;;;;;;;;;;;;;2192669;59;4190;-22
2023/11/12 00:02:42;;;;;;;;;;;;;;;;;;2194091;59;2405;-22
2023/11/12 00:05:13;;;;;;;;;;;;;;;;;;2193220;67;3279;-22
2023/11/12 00:07:43;;;;;;;;;;;;;;;;;;2194206;59;2374;-22
2023/11/12 00:10:13;;;;;;;;;;;;;;;;;;2193084;59;2269;-22
2023/11/12 00:12:44;;;;;;;;;;;;;;;;;;2194785;67;2160;-22
2023/11/12 00:15:14;;;;;;;;;;;;;;;;;;2192831;67;2147;-22
2023/11/12 00:17:44;;;;;;;;;;;;;;;;;;2193677;67;1764;-22
2023/11/12 00:20:15;;;;;;;;;;;;;;;;;;2192522;59;2341;-22
2023/11/12 00:22:46;;;;;;;;;;;;;;;;;;2199123;54;2661;-24
2023/11/12 00:25:16;;;;;;;;;;;;;;;;;;2192710;59;1964;-24
2023/11/12 00:27:46;;;;;;;;;;;;;;;;;;2194947;59;2301;-24
2023/11/12 00:30:16;;;;;;;;;;;;;;;;;;2194854;59;2491;-25
2023/11/12 00:32:47;;;;;;;;;;;;;;;;;;2195747;67;2179;-25
2023/11/12 00:35:17;;;;;;;;;;;;;;;;;;2194582;59;3979;-25
2023/11/12 00:37:47;;;;;;;;;;;;;;;;;;2196394;67;2165;-26
2023/11/12 00:40:17;;;;;;;;;;;;;;;;;;2194613;59;2473;-24
2023/11/12 00:42:48;;;;;;;;;;;;;;;;;;2195879;67;1808;-25
2023/11/12 00:45:18;;;;;;;;;;;;;;;;;;2194373;59;1824;-26
2023/11/12 00:47:48;;;;;;;;;;;;;;;;;;2195475;67;2845;-26
2023/11/12 00:50:19;;;;;;;;;;;;;;;;;;2193061;67;2596;-25
2023/11/12 00:52:49;;;;;;;;;;;;;;;;;;2195234;67;2013;-26
2023/11/12 00:55:20;;;;;;;;;;;;;;;;;;2194646;59;2431;-26
2023/11/12 00:57:50;;;;;;;;;;;;;;;;;;2194975;67;1951;-25
2023/11/12 01:00:21;;;;;;;;;;;;;;;;;;2194326;67;2465;-24
2023/11/12 01:02:51;;;;;;;;;;;;;;;;;;2196598;59;2431;-25
2023/11/12 01:05:22;;;;;;;;;;;;;;;;;;2196505;67;2517;-25
2023/11/12 01:07:52;;;;;;;;;;;;;;;;;;2197107;59;2213;-26
2023/11/12 01:10:22;;;;;;;;;;;;;;;;;;2196126;67;2047;-25
2023/11/12 01:12:52;;;;;;;;;;;;;;;;;;2198034;67;2002;-26
2023/11/12 01:15:23;;;;;;;;;;;;;;;;;;2197197;59;1969;-26
2023/11/12 01:17:53;;;;;;;;;;;;;;;;;;2196641;67;1839;-25
2023/11/12 01:20:23;;;;;;;;;;;;;;;;;;2194589;59;2628;-25
2023/11/12 01:22:54;;;;;;;;;;;;;;;;;;2194496;59;2714;-25
2023/11/12 01:25:24;;;;;;;;;;;;;;;;;;2194311;67;2943;-25
2023/11/12 01:27:54;;;;;;;;;;;;;;;;;;2195743;59;2468;-25
2023/11/12 01:30:26;;;;;;;;;;;;;;;;;;2191020;59;2446;-25
2023/11/12 01:32:56;;;;;;;;;;;;;;;;;;2194999;59;2013;-25
2023/11/12 01:35:26;;;;;;;;;;;;;;;;;;2194859;59;2774;-25
2023/11/12 01:37:58;;;;;;;;;;;;;;;;;;2195109;67;2813;-25
2023/11/12 01:40:30;;;;;;;;;;;;;;;;;;2194885;59;2126;-25
2023/11/12 01:43:00;;;;;;;;;;;;;;;;;;2195343;67;2829;-25
2023/11/12 01:45:30;;;;;;;;;;;;;;;;;;2194424;60;2957;-25
2023/11/12 01:48:01;;;;;;;;;;;;;;;;;;2195666;67;2589;-25
2023/11/12 01:50:32;;;;;;;;;;;;;;;;;;2193393;63;2301;-25
2023/11/12 01:53:03;;;;;;;;;;;;;;;;;;2194199;63;2172;-25
2023/11/12 01:55:33;;;;;;;;;;;;;;;;;;2193249;67;2512;-25
2023/11/12 01:58:04;;;;;;;;;;;;;;;;;;2195457;59;2330;-25
2023/11/12 02:00:34;;;;;;;;;;;;;;;;;;2194129;67;2558;-25
2023/11/12 02:03:06;;;;;;;;;;;;;;;;;;2195266;59;2469;-25
2023/11/12 02:05:36;;;;;;;;;;;;;;;;;;2194496;59;2574;-25
2023/11/12 02:08:07;;;;;;;;;;;;;;;;;;2195214;67;1777;-25
2023/11/12 02:10:37;;;;;;;;;;;;;;;;;;2194539;63;2652;-25
2023/11/12 02:13:08;;;;;;;;;;;;;;;;;;2195504;59;2509;-25
2023/11/12 02:15:39;;;;;;;;;;;;;;;;;;2196419;67;2017;-25
2023/11/12 02:18:10;;;;;;;;;;;;;;;;;;2195825;59;1841;-25
2023/11/12 02:20:44;;;;;;;;;;;;;;;;;;2194340;59;2378;-25
2023/11/12 02:23:15;;;;;;;;;;;;;;;;;;2194460;59;3014;-25
2023/11/12 02:25:45;;;;;;;;;;;;;;;;;;2197675;59;2233;-25
2023/11/12 02:28:17;;;;;;;;;;;;;;;;;;2191377;59;2327;-25
2023/11/12 02:30:47;;;;;;;;;;;;;;;;;;2196284;59;2861;-25
2023/11/12 02:33:17;;;;;;;;;;;;;;;;;;2194891;59;2821;-25
2023/11/12 02:35:48;;;;;;;;;;;;;;;;;;2196183;59;1835;-25
2023/11/12 02:38:19;;;;;;;;;;;;;;;;;;2196680;59;2048;-25
2023/11/12 02:40:50;;;;;;;;;;;;;;;;;;2197929;59;3006;-25
2023/11/12 02:43:20;;;;;;;;;;;;;;;;;;2195576;59;2258;-25
2023/11/12 02:45:50;;;;;;;;;;;;;;;;;;2195451;59;2030;-25
2023/11/12 02:48:20;;;;;;;;;;;;;;;;;;2194192;67;2950;-25
2023/11/12 02:50:51;;;;;;;;;;;;;;;;;;2196194;59;2345;-25
2023/11/12 02:53:21;;;;;;;;;;;;;;;;;;2194218;63;2241;-25
2023/11/12 02:55:51;;;;;;;;;;;;;;;;;;2196189;59;2003;-25
2023/11/12 02:58:22;;;;;;;;;;;;;;;;;;2195314;67;2921;-25
2023/11/12 03:00:53;;;;;;;;;;;;;;;;;;2197963;59;2126;-25
2023/11/12 03:03:23;;;;;;;;;;;;;;;;;;2195014;59;2190;-25
2023/11/12 03:05:54;;;;;;;;;;;;;;;;;;2195811;67;3002;-25
2023/11/12 03:08:25;;;;;;;;;;;;;;;;;;2194592;59;2284;-25
2023/11/12 03:10:55;;;;;;;;;;;;;;;;;;2195925;67;2222;-25
2023/11/12 03:13:26;;;;;;;;;;;;;;;;;;2194941;59;1817;-25
2023/11/12 03:15:56;;;;;;;;;;;;;;;;;;2196004;67;1999;-25
2023/11/12 03:18:26;;;;;;;;;;;;;;;;;;2194180;59;2448;-25
2023/11/12 03:20:56;;;;;;;;;;;;;;;;;;2195837;59;1853;-25
2023/11/12 03:23:26;;;;;;;;;;;;;;;;;;2194178;59;2398;-25
2023/11/12 03:25:57;;;;;;;;;;;;;;;;;;2191663;67;2075;-25
2023/11/12 03:28:27;;;;;;;;;;;;;;;;;;2192855;59;2415;-25
2023/11/12 03:30:57;;;;;;;;;;;;;;;;;;2195156;59;2746;-25
2023/11/12 03:33:28;;;;;;;;;;;;;;;;;;2194645;59;2567;-25
2023/11/12 03:35:59;;;;;;;;;;;;;;;;;;2195519;59;2919;-25
2023/11/12 03:38:31;;;;;;;;;;;;;;;;;;2194625;59;3423;-25
2023/11/12 03:41:01;;;;;;;;;;;;;;;;;;2195750;59;2020;-25
2023/11/12 03:43:31;;;;;;;;;;;;;;;;;;2194432;59;2265;-25
2023/11/12 03:46:02;;;;;;;;;;;;;;;;;;2195829;67;2202;-25
2023/11/12 03:48:32;;;;;;;;;;;;;;;;;;2190389;59;3013;-25
2023/11/12 03:51:03;;;;;;;;;;;;;;;;;;2195869;59;2171;-25
2023/11/12 03:53:33;;;;;;;;;;;;;;;;;;2194615;67;2933;-25
2023/11/12 03:56:03;;;;;;;;;;;;;;;;;;2196703;59;2220;-25
2023/11/12 03:58:34;;;;;;;;;;;;;;;;;;2194267;67;2894;-25
2023/11/12 04:01:05;;;;;;;;;;;;;;;;;;2192641;67;2543;-25
2023/11/12 04:03:35;;;;;;;;;;;;;;;;;;2193660;59;3224;-25
2023/11/12 04:06:05;;;;;;;;;;;;;;;;;;2195528;67;2963;-25
2023/11/12 04:08:35;;;;;;;;;;;;;;;;;;2190729;67;3236;-25
2023/11/12 04:11:05;;;;;;;;;;;;;;;;;;2195992;67;2108;-25
2023/11/12 04:13:36;;;;;;;;;;;;;;;;;;2193642;59;2450;-25
2023/11/12 04:16:06;;;;;;;;;;;;;;;;;;2195384;67;2209;-25
2023/11/12 04:18:36;;;;;;;;;;;;;;;;;;2194597;67;2570;-25
2023/11/12 04:21:08;;;;;;;;;;;;;;;;;;2192197;59;1841;-25
2023/11/12 04:23:38;;;;;;;;;;;;;;;;;;2193592;67;2071;-25
2023/11/12 04:26:08;;;;;;;;;;;;;;;;;;2195178;67;1838;-25
2023/11/12 04:28:39;;;;;;;;;;;;;;;;;;2194034;59;2672;-25
2023/11/12 04:31:09;;;;;;;;;;;;;;;;;;2194798;67;2698;-25
2023/11/12 04:33:39;;;;;;;;;;;;;;;;;;2194100;59;2366;-25
2023/11/12 04:36:09;;;;;;;;;;;;;;;;;;2195729;59;2340;-25
2023/11/12 04:38:40;;;;;;;;;;;;;;;;;;2193986;59;3331;-25
2023/11/12 04:41:11;;;;;;;;;;;;;;;;;;2195935;59;2666;-25
2023/11/12 04:43:42;;;;;;;;;;;;;;;;;;2193347;67;3111;-25
2023/11/12 04:46:12;;;;;;;;;;;;;;;;;;2195111;67;2770;-25
2023/11/12 04:48:42;;;;;;;;;;;;;;;;;;2194198;67;3219;-25
2023/11/12 04:51:12;;;;;;;;;;;;;;;;;;2194747;67;1955;-25
2023/11/12 04:53:43;;;;;;;;;;;;;;;;;;2193007;60;3596;-25
2023/11/12 04:56:13;;;;;;;;;;;;;;;;;;2195284;67;2297;-25
2023/11/12 04:58:44;;;;;;;;;;;;;;;;;;2193073;67;2631;-25
2023/11/12 05:01:14;;;;;;;;;;;;;;;;;;2195981;67;1953;-25
2023/11/12 05:03:45;;;;;;;;;;;;;;;;;;2194101;59;3367;-25
2023/11/12 05:06:15;;;;;;;;;;;;;;;;;;2195195;67;2299;-25
2023/11/12 05:08:46;;;;;;;;;;;;;;;;;;2194049;59;2613;-25
2023/11/12 05:11:16;;;;;;;;;;;;;;;;;;2195858;67;2476;-25
2023/11/12 05:13:46;;;;;;;;;;;;;;;;;;2194244;59;2311;-25
2023/11/12 05:16:17;;;;;;;;;;;;;;;;;;2194111;60;2359;-25
2023/11/12 05:18:47;;;;;;;;;;;;;;;;;;2193324;67;2523;-25
2023/11/12 05:21:17;;;;;;;;;;;;;;;;;;2193922;59;2508;-25
2023/11/12 05:23:48;;;;;;;;;;;;;;;;;;2193860;67;2899;-25
2023/11/12 05:26:18;;;;;;;;;;;;;;;;;;2195274;67;2047;-25
2023/11/12 05:28:48;;;;;;;;;;;;;;;;;;2193855;60;2595;-25
2023/11/12 05:31:18;;;;;;;;;;;;;;;;;;2194970;59;2157;-26
2023/11/12 05:33:48;;;;;;;;;;;;;;;;;;2194722;59;2227;-25
2023/11/12 05:36:19;;;;;;;;;;;;;;;;;;2195581;59;1897;-25
2023/11/12 05:38:49;;;;;;;;;;;;;;;;;;2194367;59;2331;-25
2023/11/12 05:41:19;;;;;;;;;;;;;;;;;;2195242;59;2549;-25
2023/11/12 05:43:50;;;;;;;;;;;;;;;;;;2194242;59;3114;-25
2023/11/12 05:46:20;;;;;;;;;;;;;;;;;;2194880;67;2791;-25
2023/11/12 05:48:52;;;;;;;;;;;;;;;;;;2193014;67;2475;-25
2023/11/12 05:51:22;;;;;;;;;;;;;;;;;;2194648;67;2369;-25
2023/11/12 05:53:52;;;;;;;;;;;;;;;;;;2194507;60;3447;-25
2023/11/12 05:56:22;;;;;;;;;;;;;;;;;;2194730;67;3066;-25
2023/11/12 05:58:53;;;;;;;;;;;;;;;;;;2194543;67;2442;-25
2023/11/12 06:01:23;;;;;;;;;;;;;;;;;;2191063;67;2217;-25
2023/11/12 06:03:53;;;;;;;;;;;;;;;;;;2194575;59;3667;-25
2023/11/12 06:06:23;;;;;;;;;;;;;;;;;;2194724;59;2028;-25
2023/11/12 06:08:54;;;;;;;;;;;;;;;;;;2194529;67;1887;-25
2023/11/12 06:11:25;;;;;;;;;;;;;;;;;;2191171;67;3217;-25
2023/11/12 06:13:55;;;;;;;;;;;;;;;;;;2195475;67;1865;-25
2023/11/12 06:16:25;;;;;;;;;;;;;;;;;;2193779;67;2415;-25
2023/11/12 06:18:55;;;;;;;;;;;;;;;;;;2195379;67;2152;-25
2023/11/12 06:21:26;;;;;;;;;;;;;;;;;;2195468;59;2838;-25
2023/11/12 06:23:56;;;;;;;;;;;;;;;;;;2196015;59;2863;-25
2023/11/12 06:26:27;;;;;;;;;;;;;;;;;;2195027;67;2279;-25
2023/11/12 06:28:57;;;;;;;;;;;;;;;;;;2195285;59;2385;-25
2023/11/12 06:31:27;;;;;;;;;;;;;;;;;;2195077;59;2142;-25
2023/11/12 06:33:58;;;;;;;;;;;;;;;;;;2195653;59;1869;-25
2023/11/12 06:36:28;;;;;;;;;;;;;;;;;;2194050;59;2027;-25
2023/11/12 06:38:58;;;;;;;;;;;;;;;;;;2193632;59;2276;-25
2023/11/12 06:41:29;;;;;;;;;;;;;;;;;;2194424;59;2179;-26
2023/11/12 06:43:59;;;;;;;;;;;;;;;;;;2195838;67;2000;-25
2023/11/12 06:46:29;;;;;;;;;;;;;;;;;;2194165;67;2956;-25
2023/11/12 06:48:59;;;;;;;;;;;;;;;;;;2196228;63;2237;-25
2023/11/12 06:51:30;;;;;;;;;;;;;;;;;;2192976;59;1991;-25
2023/11/12 06:54:00;;;;;;;;;;;;;;;;;;2196135;67;1800;-25
2023/11/12 06:56:33;;;;;;;;;;;;;;;;;;2196315;59;2624;-26
2023/11/12 06:59:04;;;;;;;;;;;;;;;;;;2197970;67;2078;-26
2023/11/12 07:01:35;;;;;;;;;;;;;;;;;;2196420;67;1992;-26
2023/11/12 07:04:06;;;;;;;;;;;;;;;;;;2197945;67;2832;-25
2023/11/12 07:06:36;;;;;;;;;;;;;;;;;;2196201;67;2202;-26
2023/11/12 07:09:08;;;;;;;;;;;;;;;;;;2198286;67;3978;-25
2023/11/12 07:11:38;;;;;;;;;;;;;;;;;;2196878;67;2189;-26
2023/11/12 07:14:08;;;;;;;;;;;;;;;;;;2198339;67;1914;-26
2023/11/12 07:16:38;;;;;;;;;;;;;;;;;;2195940;67;2598;-26
2023/11/12 07:19:09;;;;;;;;;;;;;;;;;;2196972;67;2151;-26
2023/11/12 07:21:39;;;;;;;;;;;;;;;;;;2194310;59;2258;-26
2023/11/12 07:24:09;;;;;;;;;;;;;;;;;;2195700;59;3319;-26
2023/11/12 07:26:41;;;;;;;;;;;;;;;;;;2195225;67;1801;-26
2023/11/12 07:29:14;;;;;;;;;;;;;;;;;;2194969;59;2281;-26
2023/11/12 07:31:45;;;;;;;;;;;;;;;;;;2190609;59;2112;-26
2023/11/12 07:34:15;;;;;;;;;;;;;;;;;;2195682;59;2940;-26
2023/11/12 07:36:45;;;;;;;;;;;;;;;;;;2194407;59;3277;-26
2023/11/12 07:39:16;;;;;;;;;;;;;;;;;;2194848;67;2395;-25
2023/11/12 07:41:46;;;;;;;;;;;;;;;;;;2195082;59;3707;-26
2023/11/12 07:44:16;;;;;;;;;;;;;;;;;;2193522;67;2651;-26
2023/11/12 07:46:47;;;;;;;;;;;;;;;;;;2195717;67;3570;-26
2023/11/12 07:49:17;;;;;;;;;;;;;;;;;;2196473;67;2496;-26
2023/11/12 07:51:49;;;;;;;;;;;;;;;;;;2195292;59;2154;-26
2023/11/12 07:54:20;;;;;;;;;;;;;;;;;;2196419;60;2424;-23
2023/11/12 07:56:50;;;;;;;;;;;;;;;;;;2195798;59;2271;-23
2023/11/12 07:59:20;;;;;;;;;;;;;;;;;;2196585;59;2281;-23
2023/11/12 08:01:51;;;;;;;;;;;;;;;;;;2195807;59;2449;-23
2023/11/12 08:04:21;;;;;;;;;;;;;;;;;;2193085;67;2495;-23
2023/11/12 08:06:51;;;;;;;;;;;;;;;;;;2195660;67;2740;-23
2023/11/12 08:09:21;;;;;;;;;;;;;;;;;;2197126;67;2504;-25
2023/11/12 08:11:52;;;;;;;;;;;;;;;;;;2195073;67;3810;-26
2023/11/12 08:14:24;;;;;;;;;;;;;;;;;;2195577;67;2501;-26
2023/11/12 08:16:54;;;;;;;;;;;;;;;;;;2196013;67;3693;-26
2023/11/12 08:19:25;;;;;;;;;;;;;;;;;;2196039;67;2540;-26
2023/11/12 08:21:55;;;;;;;;;;;;;;;;;;2195518;59;3706;-26
2023/11/12 08:24:25;;;;;;;;;;;;;;;;;;2196492;67;3942;-26
2023/11/12 08:26:55;;;;;;;;;;;;;;;;;;2194866;67;3384;-26
2023/11/12 08:29:26;;;;;;;;;;;;;;;;;;2195824;59;4337;-25
2023/11/12 08:31:57;;;;;;;;;;;;;;;;;;2195868;67;2309;-26
2023/11/12 08:34:27;;;;;;;;;;;;;;;;;;2196196;67;3566;-26
2023/11/12 08:36:58;;;;;;;;;;;;;;;;;;2195887;59;3535;-26
2023/11/12 08:39:28;;;;;;;;;;;;;;;;;;2193259;59;2706;-26
2023/11/12 08:41:59;;;;;;;;;;;;;;;;;;2195914;59;3831;-26
2023/11/12 08:44:29;;;;;;;;;;;;;;;;;;2195951;59;2565;-26
2023/11/12 08:46:59;;;;;;;;;;;;;;;;;;2195949;67;2656;-26
2023/11/12 08:49:32;;;;;;;;;;;;;;;;;;2196674;67;2967;-26
2023/11/12 08:52:02;;;;;;;;;;;;;;;;;;2196357;67;3653;-26
2023/11/12 08:54:32;;;;;;;;;;;;;;;;;;2195060;59;2419;-26
2023/11/12 08:57:04;;;;;;;;;;;;;;;;;;2194099;59;3531;-26
2023/11/12 08:59:34;;;;;;;;;;;;;;;;;;2194486;59;3628;-26
2023/11/12 09:02:06;;;;;;;;;;;;;;;;;;2193078;59;3675;-26
2023/11/12 09:04:36;;;;;;;;;;;;;;;;;;2192115;59;3561;-26
2023/11/12 09:07:07;;;;;;;;;;;;;;;;;;2194331;59;2209;-23
2023/11/12 09:09:37;;;;;;;;;;;;;;;;;;2194674;67;2709;-24
2023/11/12 09:12:07;;;;;;;;;;;;;;;;;;2194812;59;2537;-25
2023/11/12 09:14:37;;;;;;;;;;;;;;;;;;2192298;59;2304;-26
2023/11/12 09:17:08;;;;;;;;;;;;;;;;;;2194455;59;2374;-26
2023/11/12 09:19:38;;;;;;;;;;;;;;;;;;2191640;59;2259;-26
2023/11/12 09:22:09;;;;;;;;;;;;;;;;;;2194834;59;2686;-26
2023/11/12 09:24:45;;;;;;;;;;;;;;;;;;2193829;67;2515;-23
2023/11/12 09:27:16;;;;;;;;;;;;;;;;;;2195247;67;3349;-23
2023/11/12 09:29:46;;;;;;;;;;;;;;;;;;2195932;59;2602;-26
2023/11/12 09:32:16;;;;;;;;;;;;;;;;;;2196260;59;3489;-24
2023/11/12 09:34:47;;;;;;;;;;;;;;;;;;2194092;59;3632;-26
2023/11/12 09:37:17;;;;;;;;;;;;;;;;;;2196497;67;2946;-26
2023/11/12 09:39:47;;;;;;;;;;;;;;;;;;2195530;67;2689;-26
2023/11/12 09:42:20;;;;;;;;;;;;;;;;;;2195791;60;2740;-26
2023/11/12 09:44:52;;;;;;;;;;;;;;;;;;2191887;59;2723;-26
2023/11/12 09:47:42;;;;;;;;;;;;;;;;;;2192967;67;2404;-24
2023/11/12 09:50:12;;;;;;;;;;;;;;;;;;2196508;67;3149;-25
2023/11/12 09:52:45;;;;;;;;;;;;;;;;;;2189690;59;2560;-23
2023/11/12 09:55:16;;;;;;;;;;;;;;;;;;2196100;67;2137;-24
2023/11/12 09:57:47;;;;;;;;;;;;;;;;;;2194674;67;3377;-26
2023/11/12 10:00:17;;;;;;;;;;;;;;;;;;2197152;67;2159;-26
2023/11/12 10:02:48;;;;;;;;;;;;;;;;;;2194569;59;2649;-26
2023/11/12 10:05:18;;;;;;;;;;;;;;;;;;2193909;59;2497;-27
2023/11/12 10:07:49;;;;;;;;;;;;;;;;;;2195742;59;3525;-27
2023/11/12 10:10:20;;;;;;;;;;;;;;;;;;2195952;59;3313;-27
2023/11/12 10:12:54;;;;;;;;;;;;;;;;;;2194263;59;2395;-25
2023/11/12 10:15:28;;;;;;;;;;;;;;;;;;2195539;67;2710;-25
2023/11/12 10:17:59;;;;;;;;;;;;;;;;;;2195457;59;2595;-27
2023/11/12 10:20:31;;;;;;;;;;;;;;;;;;2196287;60;2391;-25
2023/11/12 10:23:02;;;;;;;;;;;;;;;;;;2195016;59;2604;-27
2023/11/12 10:25:41;;;;;;;;;;;;;;;;;;2195950;67;1317;-25
2023/11/12 10:28:12;;;;;;;;;;;;;;;;;;2195288;59;2055;-27
2023/11/12 10:30:43;;;;;;;;;;;;;;;;;;2193954;59;2191;-27
2023/11/12 10:33:17;;;;;;;;;;;;;;;;;;2192994;59;1491;-26
2023/11/12 10:35:47;;;;;;;;;;;;;;;;;;2194097;59;1901;-26
2023/11/12 10:38:18;;;;;;;;;;;;;;;;;;2192972;67;1889;-27
2023/11/12 10:41:07;;;;;;;;;;;;;;;;;;2195502;59;2031;-26
2023/11/12 10:43:37;;;;;;;;;;;;;;;;;;2195752;59;1381;-27
2023/11/12 10:46:07;;;;;;;;;;;;;;;;;;2195663;67;1288;-27
2023/11/12 10:48:42;;;;;;;;;;;;;;;;;;2196291;67;2266;-27
2023/11/12 10:51:12;;;;;;;;;;;;;;;;;;2196646;67;1985;-27
2023/11/12 10:53:43;;;;;;;;;;;;;;;;;;2193768;67;1920;-28
2023/11/12 10:56:15;;;;;;;;;;;;;;;;;;2195167;67;1573;-27
2023/11/12 10:58:47;;;;;;;;;;;;;;;;;;2195910;67;1693;-26
2023/11/12 11:01:17;;;;;;;;;;;;;;;;;;2197176;67;2045;-26
2023/11/12 11:03:49;;;;;;;;;;;;;;;;;;2193935;59;3689;-26
2023/11/12 11:06:21;;;;;;;;;;;;;;;;;;2196168;59;2080;-26
2023/11/12 11:08:51;;;;;;;;;;;;;;;;;;2194554;67;2625;-28
2023/11/12 11:11:22;;;;;;;;;;;;;;;;;;2196992;59;2508;-26
2023/11/12 11:13:52;;;;;;;;;;;;;;;;;;2195895;67;2640;-26
2023/11/12 11:16:41;;;;;;;;;;;;;;;;;;2196794;67;1602;-26
2023/11/12 11:19:12;;;;;;;;;;;;;;;;;;2196452;67;3571;-26
2023/11/12 11:22:03;;;;;;;;;;;;;;;;;;2195502;59;3706;-26
2023/11/12 11:24:44;;;;;;;;;;;;;;;;;;2196094;59;3522;-26
2023/11/12 11:27:18;;;;;;;;;;;;;;;;;;2195755;59;2433;-26
2023/11/12 11:30:12;;;;;;;;;;;;;;;;;;2195750;59;2376;-26
2023/11/12 11:32:51;;;;;;;;;;;;;;;;;;2195521;59;3328;-26
2023/11/12 11:35:22;;;;;;;;;;;;;;;;;;2196464;67;3686;-26
2023/11/12 11:38:08;;;;;;;;;;;;;;;;;;2195853;67;3330;-29
2023/11/12 11:40:39;;;;;;;;;;;;;;;;;;2199448;59;2654;-29
2023/11/12 11:43:22;;;;;;;;;;;;;;;;;;2195388;59;3555;-26
2023/11/12 11:46:09;;;;;;;;;;;;;;;;;;2194945;59;3621;-28
2023/11/12 11:48:42;;;;;;;;;;;;;;;;;;2196524;67;2580;-26
2023/11/12 11:51:34;;;;;;;;;;;;;;;;;;2195168;59;3135;-27
2023/11/12 11:54:05;;;;;;;;;;;;;;;;;;2194674;67;4127;-27
2023/11/12 11:56:36;;;;;;;;;;;;;;;;;;2195675;67;2898;-29
2023/11/12 11:59:06;;;;;;;;;;;;;;;;;;2195415;59;2925;-29
2023/11/12 12:01:43;;;;;;;;;;;;;;;;;;2192850;59;2549;-29
2023/11/12 12:04:14;;;;;;;;;;;;;;;;;;2194944;59;3813;-29
2023/11/12 12:06:45;;;;;;;;;;;;;;;;;;2194730;67;4180;-29
2023/11/12 12:09:17;;;;;;;;;;;;;;;;;;2192097;67;4606;-27
2023/11/12 12:11:51;;;;;;;;;;;;;;;;;;2194113;67;2549;-27
2023/11/12 12:14:22;;;;;;;;;;;;;;;;;;2195810;67;1961;-29
2023/11/12 12:16:52;;;;;;;;;;;;;;;;;;2194700;59;3441;-29
2023/11/12 12:19:23;;;;;;;;;;;;;;;;;;2195636;59;2197;-29
2023/11/12 12:21:53;;;;;;;;;;;;;;;;;;2194081;59;3599;-29
2023/11/12 12:24:24;;;;;;;;;;;;;;;;;;2195659;59;1952;-29
2023/11/12 12:26:56;;;;;;;;;;;;;;;;;;2193926;67;2247;-29
2023/11/12 12:29:26;;;;;;;;;;;;;;;;;;2195212;67;2396;-29
2023/11/12 12:31:57;;;;;;;;;;;;;;;;;;2193986;67;3613;-29
2023/11/12 12:34:38;;;;;;;;;;;;;;;;;;2195096;67;3681;-29
2023/11/12 12:37:09;;;;;;;;;;;;;;;;;;2189079;59;4867;-29
2023/11/12 12:39:46;;;;;;;;;;;;;;;;;;2189484;59;2362;-29
2023/11/12 12:42:19;;;;;;;;;;;;;;;;;;2191692;59;2399;-29
2023/11/12 12:44:51;;;;;;;;;;;;;;;;;;2181668;59;5296;-29
2023/11/12 12:47:33;;;;;;;;;;;;;;;;;;2191469;59;3245;-29
2023/11/12 12:50:32;;;;;;;;;;;;;;;;;;2190840;67;1940;-29
2023/11/12 12:53:15;;;;;;;;;;;;;;;;;;2188486;59;4489;-29
2023/11/12 12:55:46;;;;;;;;;;;;;;;;;;2188889;59;4504;-30
2023/11/12 12:58:16;;;;;;;;;;;;;;;;;;2190257;59;3505;-29
2023/11/12 13:00:46;;;;;;;;;;;;;;;;;;2196520;59;1854;-29
2023/11/12 13:03:30;;;;;;;;;;;;;;;;;;2193429;59;2525;-30
2023/11/12 13:06:00;;;;;;;;;;;;;;;;;;2192110;64;3002;-30
2023/11/12 13:08:32;;;;;;;;;;;;;;;;;;2194336;67;2815;-30
2023/11/12 13:11:02;;;;;;;;;;;;;;;;;;2197037;67;2056;-29
2023/11/12 13:13:32;;;;;;;;;;;;;;;;;;2198752;67;1845;-29
2023/11/12 13:16:04;;;;;;;;;;;;;;;;;;2192851;67;2879;-29
2023/11/12 13:18:35;;;;;;;;;;;;;;;;;;2195055;59;3614;-30
2023/11/12 13:21:06;;;;;;;;;;;;;;;;;;2194114;59;3662;-29
2023/11/12 13:23:38;;;;;;;;;;;;;;;;;;2194454;67;3887;-29
2023/11/12 13:26:08;;;;;;;;;;;;;;;;;;2191115;67;2489;-29
2023/11/12 13:28:39;;;;;;;;;;;;;;;;;;2194689;59;2419;-29
2023/11/12 13:31:10;;;;;;;;;;;;;;;;;;2191907;59;2539;-29
2023/11/12 13:33:41;;;;;;;;;;;;;;;;;;2191907;59;2764;-29
2023/11/12 13:36:15;;;;;;;;;;;;;;;;;;2192040;59;2299;-29
2023/11/12 13:38:46;;;;;;;;;;;;;;;;;;2192497;59;2123;-29
2023/11/12 13:41:18;;;;;;;;;;;;;;;;;;2197133;59;2457;-29
2023/11/12 13:43:51;;;;;;;;;;;;;;;;;;2191170;67;2226;-29
2023/11/12 13:46:24;;;;;;;;;;;;;;;;;;2191125;67;2718;-29
2023/11/12 13:48:54;;;;;;;;;;;;;;;;;;2189229;67;3268;-29
2023/11/12 13:51:25;;;;;;;;;;;;;;;;;;2191289;67;2454;-30
2023/11/12 13:53:56;;;;;;;;;;;;;;;;;;2190472;59;2475;-29
2023/11/12 13:56:26;;;;;;;;;;;;;;;;;;2192386;60;2370;-29
2023/11/12 13:58:57;;;;;;;;;;;;;;;;;;2190905;67;3645;-29
2023/11/12 14:01:28;;;;;;;;;;;;;;;;;;2191466;59;2297;-29
2023/11/12 14:03:58;;;;;;;;;;;;;;;;;;2190540;67;2949;-27
2023/11/12 14:06:28;;;;;;;;;;;;;;;;;;2191442;67;3636;-28
2023/11/12 14:08:58;;;;;;;;;;;;;;;;;;2195757;65;3070;-28
2023/11/12 14:11:29;;;;;;;;;;;;;;;;;;2191870;67;2281;-28
2023/11/12 14:14:00;;;;;;;;;;;;;;;;;;2189272;67;2751;-28
2023/11/12 14:16:34;;;;;;;;;;;;;;;;;;2196168;59;2199;-28
2023/11/12 14:19:10;;;;;;;;;;;;;;;;;;2190805;59;3767;-28
2023/11/12 14:21:42;;;;;;;;;;;;;;;;;;2190274;59;2234;-28
2023/11/12 14:24:12;;;;;;;;;;;;;;;;;;2188202;67;2498;-29
2023/11/12 14:26:45;;;;;;;;;;;;;;;;;;2190349;67;2674;-28
2023/11/12 14:29:15;;;;;;;;;;;;;;;;;;2189994;59;3459;-28
2023/11/12 14:31:46;;;;;;;;;;;;;;;;;;2197597;59;2374;-28
2023/11/12 14:34:16;;;;;;;;;;;;;;;;;;2190535;67;2245;-28
2023/11/12 14:36:46;;;;;;;;;;;;;;;;;;2192226;59;2318;-28
2023/11/12 14:39:22;;;;;;;;;;;;;;;;;;2191212;59;3668;-28
2023/11/12 14:41:54;;;;;;;;;;;;;;;;;;2194929;67;1910;-29
2023/11/12 14:44:25;;;;;;;;;;;;;;;;;;2193542;59;4261;-28
2023/11/12 14:46:55;;;;;;;;;;;;;;;;;;2189762;67;3571;-28
2023/11/12 14:49:26;;;;;;;;;;;;;;;;;;2192928;59;2030;-28
2023/11/12 14:51:57;;;;;;;;;;;;;;;;;;2189710;59;2507;-28
2023/11/12 14:54:29;;;;;;;;;;;;;;;;;;2192382;59;2847;-27
2023/11/12 14:56:59;;;;;;;;;;;;;;;;;;2190882;63;2575;-28
2023/11/12 14:59:29;;;;;;;;;;;;;;;;;;2198632;67;2225;-28
2023/11/12 15:01:59;;;;;;;;;;;;;;;;;;2191302;59;2608;-27
2023/11/12 15:04:31;;;;;;;;;;;;;;;;;;2192512;59;2389;-27
2023/11/12 15:07:02;;;;;;;;;;;;;;;;;;2189652;67;2877;-28
2023/11/12 15:09:32;;;;;;;;;;;;;;;;;;2192277;59;3177;-28
2023/11/12 15:12:03;;;;;;;;;;;;;;;;;;2190479;67;2099;-28
2023/11/12 15:14:33;;;;;;;;;;;;;;;;;;2190871;59;2326;-27
2023/11/12 15:17:04;;;;;;;;;;;;;;;;;;2190336;67;2424;-28
2023/11/12 15:19:34;;;;;;;;;;;;;;;;;;2192582;67;3921;-28
2023/11/12 15:22:05;;;;;;;;;;;;;;;;;;2195424;59;2548;-28
2023/11/12 15:24:35;;;;;;;;;;;;;;;;;;2192135;62;2145;-28
2023/11/12 15:27:06;;;;;;;;;;;;;;;;;;2193685;67;2630;-27
2023/11/12 15:29:36;;;;;;;;;;;;;;;;;;2193180;59;2246;-28
2023/11/12 15:32:08;;;;;;;;;;;;;;;;;;2190921;59;2967;-28
2023/11/12 15:34:38;;;;;;;;;;;;;;;;;;2192832;67;2268;-28
2023/11/12 15:37:10;;;;;;;;;;;;;;;;;;2190169;59;3335;-28
2023/11/12 15:39:40;;;;;;;;;;;;;;;;;;2197617;59;2233;-28
2023/11/12 15:42:12;;;;;;;;;;;;;;;;;;2187157;67;3167;-27
2023/11/12 15:44:48;;;;;;;;;;;;;;;;;;2192178;59;3148;-28
2023/11/12 15:47:19;;;;;;;;;;;;;;;;;;2189888;67;2840;-28
2023/11/12 15:49:51;;;;;;;;;;;;;;;;;;2191375;59;2050;-28
2023/11/12 15:52:24;;;;;;;;;;;;;;;;;;2190561;67;2995;-27
2023/11/12 15:54:55;;;;;;;;;;;;;;;;;;2191543;67;2730;-28
2023/11/12 15:57:26;;;;;;;;;;;;;;;;;;2192596;62;1806;-28
2023/11/12 15:59:56;;;;;;;;;;;;;;;;;;2192225;67;2512;-28
2023/11/12 16:02:26;;;;;;;;;;;;;;;;;;2192202;59;2376;-28
2023/11/12 16:04:58;;;;;;;;;;;;;;;;;;2191591;67;2189;-28
2023/11/12 16:07:28;;;;;;;;;;;;;;;;;;2191335;67;2435;-28
2023/11/12 16:09:58;;;;;;;;;;;;;;;;;;2190203;59;3219;-28
2023/11/12 16:12:29;;;;;;;;;;;;;;;;;;2197632;67;3657;-28
2023/11/12 16:15:01;;;;;;;;;;;;;;;;;;2191195;67;2463;-28
2023/11/12 16:17:31;;;;;;;;;;;;;;;;;;2192998;59;2172;-28
2023/11/12 16:20:05;;;;;;;;;;;;;;;;;;2191233;67;3417;-28
2023/11/12 16:22:36;;;;;;;;;;;;;;;;;;2188493;59;3380;-28
2023/11/12 16:25:09;;;;;;;;;;;;;;;;;;2190433;67;4485;-28
2023/11/12 16:27:40;;;;;;;;;;;;;;;;;;2198396;59;3646;-28
2023/11/12 16:30:13;;;;;;;;;;;;;;;;;;2192419;59;4221;-28
2023/11/12 16:32:43;;;;;;;;;;;;;;;;;;2192577;59;1994;-28
2023/11/12 16:35:13;;;;;;;;;;;;;;;;;;2190303;59;2557;-28
2023/11/12 16:37:47;;;;;;;;;;;;;;;;;;2192582;59;2192;-28
2023/11/12 16:40:17;;;;;;;;;;;;;;;;;;2190629;59;3686;-27
2023/11/12 16:42:48;;;;;;;;;;;;;;;;;;2192069;67;2231;-28
2023/11/12 16:45:19;;;;;;;;;;;;;;;;;;2191183;59;3785;-28
2023/11/12 16:47:49;;;;;;;;;;;;;;;;;;2192191;59;2587;-27
2023/11/12 16:50:20;;;;;;;;;;;;;;;;;;2187725;67;3832;-28
2023/11/12 16:52:51;;;;;;;;;;;;;;;;;;2192001;67;3019;-28
2023/11/12 16:55:21;;;;;;;;;;;;;;;;;;2191105;67;3169;-28
2023/11/12 16:57:51;;;;;;;;;;;;;;;;;;2191651;67;3592;-28
2023/11/12 17:00:22;;;;;;;;;;;;;;;;;;2191810;67;1863;-27
2023/11/12 17:02:52;;;;;;;;;;;;;;;;;;2192897;59;2803;-27
2023/11/12 17:05:22;;;;;;;;;;;;;;;;;;2192145;67;2793;-28
2023/11/12 17:07:52;;;;;;;;;;;;;;;;;;2192979;67;2840;-28
2023/11/12 17:10:23;;;;;;;;;;;;;;;;;;2191185;59;3322;-28
2023/11/12 17:12:53;;;;;;;;;;;;;;;;;;2192214;67;2258;-28
2023/11/12 17:15:23;;;;;;;;;;;;;;;;;;2191978;59;3767;-28
2023/11/12 17:17:54;;;;;;;;;;;;;;;;;;2191696;59;2466;-28
2023/11/12 17:20:24;;;;;;;;;;;;;;;;;;2191801;67;3406;-28
2023/11/12 17:22:54;;;;;;;;;;;;;;;;;;2197814;59;3634;-28
2023/11/12 17:25:27;;;;;;;;;;;;;;;;;;2196600;67;1839;-28
2023/11/12 17:27:58;;;;;;;;;;;;;;;;;;2192663;59;2416;-28
2023/11/12 17:30:28;;;;;;;;;;;;;;;;;;2191034;59;2403;-28